createdAt,value
2023-05-08T00:01:35.151Z,69.10
2023-05-08T00:03:42.025Z,69.20
2023-05-08T00:05:49.053Z,69.30
2023-05-08T00:08:02.188Z,69.10
2023-05-08T00:10:10.934Z,68.90
2023-05-08T00:12:17.971Z,68.50
2023-05-08T00:14:27.050Z,68.10
2023-05-08T00:16:34.512Z,67.90
2023-05-08T00:18:42.228Z,67.70
2023-05-08T00:20:49.004Z,67.50
2023-05-08T00:22:55.991Z,67.40
2023-05-08T00:25:02.800Z,67.30
2023-05-08T00:27:10.238Z,67.20
2023-05-08T00:29:17.070Z,67.30
2023-05-08T00:31:26.757Z,67.10
2023-05-08T00:33:33.767Z,67.00
2023-05-08T00:35:42.200Z,66.90
2023-05-08T00:37:49.121Z,66.90
2023-05-08T00:39:56.452Z,66.90
2023-05-08T00:42:03.273Z,67.00
2023-05-08T00:44:10.316Z,67.10
2023-05-08T00:46:17.880Z,67.30
2023-05-08T00:48:27.899Z,67.20
2023-05-08T00:50:35.844Z,67.00
2023-05-08T00:52:43.178Z,67.10
2023-05-08T00:54:50.662Z,67.10
2023-05-08T00:56:57.742Z,67.10
2023-05-08T00:59:06.256Z,67.00
2023-05-08T01:01:15.393Z,67.20
2023-05-08T01:03:23.844Z,67.50
2023-05-08T01:05:32.827Z,67.50
2023-05-08T01:07:40.006Z,67.00
2023-05-08T01:09:46.777Z,67.10
2023-05-08T01:11:59.450Z,67.00
2023-05-08T01:14:16.097Z,66.90
2023-05-08T01:16:32.328Z,66.90
2023-05-08T01:18:43.561Z,67.20
2023-05-08T01:20:59.189Z,66.90
2023-05-08T01:23:35.025Z,66.60
2023-05-08T01:26:08.744Z,66.50
2023-05-08T01:28:57.145Z,66.10
2023-05-08T01:31:11.344Z,65.90
2023-05-08T01:35:54.232Z,65.90
2023-05-08T01:38:09.528Z,64.90
2023-05-08T01:40:24.817Z,64.60
2023-05-08T01:42:42.390Z,64.80
2023-05-08T01:44:54.345Z,65.20
2023-05-08T01:47:02.215Z,65.40
2023-05-08T01:49:13.920Z,65.20
2023-05-08T01:51:26.900Z,65.10
2023-05-08T01:53:38.428Z,65.10
2023-05-08T01:55:53.983Z,65.40
2023-05-08T01:58:06.822Z,64.50
2023-05-08T02:00:14.842Z,64.80
2023-05-08T02:02:22.835Z,64.60
2023-05-08T02:04:32.919Z,65.00
2023-05-08T02:06:42.004Z,64.60
2023-05-08T02:08:50.390Z,64.80
2023-05-08T02:10:59.170Z,64.90
2023-05-08T02:13:07.543Z,65.30
2023-05-08T02:15:17.670Z,65.30
2023-05-08T02:17:25.491Z,65.70
2023-05-08T02:19:34.791Z,65.70
2023-05-08T02:21:43.992Z,65.70
2023-05-08T02:23:51.587Z,66.10
2023-05-08T02:26:00.603Z,66.50
2023-05-08T02:28:10.350Z,67.00
2023-05-08T02:30:20.612Z,67.10
2023-05-08T02:32:34.049Z,67.70
2023-05-08T02:35:02.034Z,68.00
2023-05-08T02:37:17.914Z,67.80
2023-05-08T02:39:28.857Z,67.70
2023-05-08T02:41:38.286Z,67.20
2023-05-08T02:43:45.876Z,67.10
2023-05-08T02:46:01.949Z,67.40
2023-05-08T02:48:15.826Z,67.20
2023-05-08T02:50:29.861Z,66.80
2023-05-08T02:52:41.482Z,66.90
2023-05-08T02:54:54.581Z,66.80
2023-05-08T02:57:06.541Z,66.10
2023-05-08T02:59:20.033Z,66.70
2023-05-08T03:01:31.821Z,66.60
2023-05-08T03:03:43.970Z,66.00
2023-05-08T03:05:56.977Z,65.50
2023-05-08T03:08:08.011Z,65.40
2023-05-08T03:10:17.659Z,65.00
2023-05-08T03:12:29.836Z,65.00
2023-05-08T03:14:42.604Z,65.00
2023-05-08T03:16:50.957Z,64.60
2023-05-08T03:19:03.053Z,64.90
2023-05-08T03:21:11.309Z,65.00
2023-05-08T03:23:22.742Z,64.40
2023-05-08T03:25:31.572Z,64.80
2023-05-08T03:27:40.287Z,64.80
2023-05-08T03:29:48.690Z,64.90
2023-05-08T03:31:56.851Z,65.20
2023-05-08T03:34:05.410Z,65.80
2023-05-08T03:36:15.356Z,66.10
2023-05-08T03:38:23.304Z,65.40
2023-05-08T03:40:32.126Z,65.40
2023-05-08T03:42:40.686Z,65.20
2023-05-08T03:44:48.279Z,65.50
2023-05-08T03:46:59.460Z,65.10
2023-05-08T03:49:07.514Z,65.10
2023-05-08T03:51:16.543Z,65.80
2023-05-08T03:53:23.816Z,65.30
2023-05-08T03:55:31.257Z,64.80
2023-05-08T03:57:48.904Z,64.40
2023-05-08T04:00:04.975Z,65.10
2023-05-08T04:02:28.655Z,64.50
2023-05-08T04:04:42.892Z,64.10
2023-05-08T04:07:02.700Z,64.00
2023-05-08T04:09:23.059Z,64.00
2023-05-08T04:11:35.158Z,63.60
2023-05-08T04:13:52.019Z,63.50
2023-05-08T04:16:08.527Z,63.60
2023-05-08T04:18:20.361Z,63.20
2023-05-08T04:20:30.674Z,63.80
2023-05-08T04:22:43.681Z,63.70
2023-05-08T04:24:53.733Z,64.20
2023-05-08T04:27:01.735Z,63.90
2023-05-08T04:29:10.656Z,63.60
2023-05-08T04:31:19.471Z,63.90
2023-05-08T04:33:26.963Z,63.40
2023-05-08T04:35:34.200Z,62.80
2023-05-08T04:37:44.963Z,62.80
2023-05-08T04:39:54.968Z,62.50
2023-05-08T04:42:05.724Z,62.30
2023-05-08T04:44:15.214Z,62.10
2023-05-08T04:46:22.534Z,61.90
2023-05-08T04:48:29.527Z,61.00
2023-05-08T04:50:36.610Z,61.10
2023-05-08T04:52:45.535Z,61.60
2023-05-08T04:54:52.759Z,62.30
2023-05-08T04:56:59.518Z,62.50
2023-05-08T04:59:07.741Z,62.50
2023-05-08T05:01:14.924Z,62.50
2023-05-08T05:03:22.580Z,62.50
2023-05-08T05:05:29.851Z,62.50
2023-05-08T05:07:37.419Z,62.70
2023-05-08T05:09:47.379Z,62.30
2023-05-08T05:11:55.948Z,61.40
2023-05-08T05:14:04.409Z,61.30
2023-05-08T05:16:12.007Z,61.60
2023-05-08T05:18:19.353Z,61.90
2023-05-08T05:20:26.697Z,62.10
2023-05-08T05:22:35.125Z,61.90
2023-05-08T05:24:42.562Z,61.50
2023-05-08T05:26:51.385Z,61.00
2023-05-08T05:28:58.833Z,60.80
2023-05-08T05:31:06.141Z,60.80
2023-05-08T05:33:13.414Z,60.70
2023-05-08T05:35:20.470Z,60.40
2023-05-08T05:37:27.956Z,60.20
2023-05-08T05:39:34.984Z,60.00
2023-05-08T05:41:45.238Z,59.90
2023-05-08T05:43:54.272Z,59.80
2023-05-08T05:46:08.610Z,59.30
2023-05-08T05:48:16.036Z,59.10
2023-05-08T05:50:23.590Z,59.10
2023-05-08T05:52:31.075Z,59.00
2023-05-08T05:54:38.472Z,58.70
2023-05-08T05:56:45.814Z,59.00
2023-05-08T05:58:54.874Z,59.20
2023-05-08T06:01:03.754Z,59.30
2023-05-08T06:03:11.839Z,59.00
2023-05-08T06:05:20.171Z,59.20
2023-05-08T06:07:27.314Z,59.10
2023-05-08T06:09:34.161Z,58.60
2023-05-08T06:11:41.393Z,58.90
2023-05-08T06:13:50.508Z,59.10
2023-05-08T06:16:00.538Z,59.00
2023-05-08T06:18:07.853Z,59.10
2023-05-08T06:20:15.393Z,59.00
2023-05-08T06:22:24.173Z,58.90
2023-05-08T06:24:31.655Z,58.90
2023-05-08T06:26:38.528Z,58.80
2023-05-08T06:28:45.915Z,58.20
2023-05-08T06:30:52.985Z,57.80
2023-05-08T06:33:02.181Z,58.00
2023-05-08T06:35:10.324Z,58.30
2023-05-08T06:37:17.922Z,58.40
2023-05-08T06:39:24.857Z,57.80
2023-05-08T06:41:31.921Z,57.90
2023-05-08T06:43:38.589Z,58.10
2023-05-08T06:45:47.357Z,58.60
2023-05-08T06:47:54.148Z,58.10
2023-05-08T06:50:04.590Z,58.30
2023-05-08T06:52:11.464Z,58.50
2023-05-08T06:54:18.798Z,58.30
2023-05-08T06:56:25.572Z,58.20
2023-05-08T06:58:33.268Z,58.30
2023-05-08T07:00:40.304Z,57.10
2023-05-08T07:02:47.738Z,58.10
2023-05-08T07:04:54.682Z,57.00
2023-05-08T07:07:03.695Z,57.60
2023-05-08T07:09:10.968Z,58.30
2023-05-08T07:11:18.161Z,57.60
2023-05-08T07:13:25.361Z,58.30
2023-05-08T07:15:34.641Z,57.60
2023-05-08T07:17:42.721Z,57.30
2023-05-08T07:19:54.201Z,58.10
2023-05-08T07:22:03.132Z,57.00
2023-05-08T07:24:10.761Z,57.30
2023-05-08T07:26:17.693Z,57.90
2023-05-08T07:28:25.074Z,57.10
2023-05-08T07:30:31.963Z,56.90
2023-05-08T07:32:40.204Z,57.60
2023-05-08T07:34:47.660Z,56.80
2023-05-08T07:36:55.081Z,56.40
2023-05-08T07:39:03.800Z,56.10
2023-05-08T07:41:10.794Z,55.60
2023-05-08T07:43:18.005Z,55.10
2023-05-08T07:45:25.135Z,54.60
2023-05-08T07:47:32.212Z,54.90
2023-05-08T07:49:39.347Z,55.00
2023-05-08T07:51:46.626Z,54.90
2023-05-08T07:53:53.655Z,54.80
2023-05-08T07:56:02.634Z,54.80
2023-05-08T07:58:09.554Z,54.80
2023-05-08T08:00:18.118Z,54.70
2023-05-08T08:02:25.174Z,54.30
2023-05-08T08:04:32.024Z,54.20
2023-05-08T08:06:39.047Z,53.90
2023-05-08T08:08:46.278Z,53.80
2023-05-08T08:10:53.927Z,52.80
2023-05-08T08:13:03.477Z,52.70
2023-05-08T08:15:11.452Z,52.40
2023-05-08T08:17:18.625Z,52.20
2023-05-08T08:19:25.464Z,52.00
2023-05-08T08:21:32.648Z,51.30
2023-05-08T08:23:39.829Z,51.30
2023-05-08T08:25:47.269Z,51.40
2023-05-08T08:27:54.422Z,51.80
2023-05-08T08:30:16.241Z,52.40
2023-05-08T08:32:24.733Z,52.70
2023-05-08T08:34:31.561Z,52.90
2023-05-08T08:36:38.743Z,53.00
2023-05-08T08:38:45.928Z,53.30
2023-05-08T08:40:54.131Z,53.20
2023-05-08T08:43:01.248Z,53.10
2023-05-08T08:45:11.618Z,52.90
2023-05-08T08:47:22.269Z,52.90
2023-05-08T08:49:34.018Z,52.90
2023-05-08T08:51:49.032Z,52.80
2023-05-08T08:54:05.532Z,52.60
2023-05-08T08:56:13.481Z,52.60
2023-05-08T08:58:29.775Z,52.90
2023-05-08T09:00:41.401Z,52.80
2023-05-08T09:02:49.450Z,52.90
2023-05-08T09:04:56.666Z,52.70
2023-05-08T09:07:06.314Z,52.60
2023-05-08T09:09:15.024Z,52.60
2023-05-08T09:11:22.540Z,53.00
2023-05-08T09:13:29.704Z,53.30
2023-05-08T09:15:38.751Z,53.60
2023-05-08T09:17:45.565Z,53.80
2023-05-08T09:19:54.292Z,54.00
2023-05-08T09:22:03.367Z,53.90
2023-05-08T09:24:11.015Z,54.00
2023-05-08T09:26:33.371Z,54.20
2023-05-08T09:28:40.424Z,54.70
2023-05-08T09:30:55.405Z,54.30
2023-05-08T09:33:06.084Z,54.00
2023-05-08T09:35:14.475Z,54.00
2023-05-08T09:37:21.802Z,53.50
2023-05-08T09:39:29.403Z,53.20
2023-05-08T09:41:36.672Z,53.40
2023-05-08T09:43:43.805Z,53.20
2023-05-08T09:45:52.718Z,53.10
2023-05-08T09:48:00.008Z,53.10
2023-05-08T09:50:08.528Z,53.30
2023-05-08T09:52:19.799Z,53.40
2023-05-08T09:54:26.981Z,53.40
2023-05-08T09:56:38.114Z,53.20
2023-05-08T09:58:46.310Z,53.20
2023-05-08T10:00:55.749Z,52.80
2023-05-08T10:03:04.426Z,52.60
2023-05-08T10:05:28.137Z,52.70
2023-05-08T10:07:36.746Z,52.90
2023-05-08T10:09:50.780Z,53.40
2023-05-08T10:11:58.383Z,53.30
2023-05-08T10:14:05.666Z,53.40
2023-05-08T10:16:17.932Z,53.30
2023-05-08T10:18:30.041Z,53.80
2023-05-08T10:20:37.966Z,54.90
2023-05-08T10:22:46.833Z,55.20
2023-05-08T10:24:58.779Z,55.70
2023-05-08T10:27:13.543Z,55.90
2023-05-08T10:29:25.686Z,55.90
2023-05-08T10:31:37.959Z,56.20
2023-05-08T10:33:47.881Z,56.30
2023-05-08T10:35:55.322Z,56.50
2023-05-08T10:38:03.544Z,57.20
2023-05-08T10:40:12.103Z,57.50
2023-05-08T10:42:19.630Z,56.60
2023-05-08T10:44:29.116Z,56.30
2023-05-08T10:46:45.396Z,57.00
2023-05-08T10:49:06.980Z,57.70
2023-05-08T10:51:18.418Z,57.60
2023-05-08T10:53:34.614Z,58.00
2023-05-08T10:55:42.349Z,58.90
2023-05-08T10:58:12.219Z,59.10
2023-05-08T11:00:20.215Z,58.70
2023-05-08T11:02:37.872Z,58.60
2023-05-08T11:04:46.076Z,59.50
2023-05-08T11:06:55.303Z,59.60
2023-05-08T11:09:02.453Z,59.40
2023-05-08T11:11:14.448Z,59.70
2023-05-08T11:13:22.740Z,59.10
2023-05-08T11:15:40.741Z,59.10
2023-05-08T11:17:57.675Z,59.10
2023-05-08T11:20:05.499Z,59.40
2023-05-08T11:22:27.033Z,58.80
2023-05-08T11:24:40.501Z,58.20
2023-05-08T11:27:05.812Z,58.50
2023-05-08T11:29:20.593Z,59.00
2023-05-08T11:31:37.111Z,59.40
2023-05-08T11:33:45.623Z,59.80
2023-05-08T11:35:58.079Z,60.50
2023-05-08T11:38:26.484Z,61.20
2023-05-08T11:40:51.916Z,62.00
2023-05-08T11:43:01.555Z,62.20
2023-05-08T11:45:10.702Z,62.00
2023-05-08T11:47:21.755Z,62.10
2023-05-08T11:49:31.245Z,62.50
2023-05-08T11:51:39.448Z,62.70
2023-05-08T11:53:50.914Z,62.80
2023-05-08T11:55:58.223Z,62.80
2023-05-08T11:58:05.243Z,62.80
2023-05-08T12:00:14.038Z,63.10
2023-05-08T12:02:21.127Z,63.10
2023-05-08T12:04:30.144Z,63.00
2023-05-08T12:06:38.884Z,62.90
2023-05-08T12:08:46.064Z,62.90
2023-05-08T12:10:57.548Z,63.10
2023-05-08T12:13:03.855Z,63.40
2023-05-08T12:15:12.120Z,64.30
2023-05-08T12:17:21.618Z,63.90
2023-05-08T12:19:30.381Z,64.10
2023-05-08T12:21:37.759Z,64.50
2023-05-08T12:23:44.628Z,65.10
2023-05-08T12:25:55.348Z,65.50
2023-05-08T12:28:02.787Z,65.20
2023-05-08T12:30:11.776Z,64.80
2023-05-08T12:32:18.888Z,64.80
2023-05-08T12:34:26.276Z,65.00
2023-05-08T12:36:38.145Z,65.00
2023-05-08T12:38:45.358Z,65.60
2023-05-08T12:40:53.963Z,66.20
2023-05-08T12:43:03.774Z,66.40
2023-05-08T12:45:11.819Z,66.50
2023-05-08T12:47:18.937Z,66.70
2023-05-08T12:49:30.937Z,67.50
2023-05-08T12:51:41.086Z,68.10
2023-05-08T12:53:50.371Z,68.10
2023-05-08T12:55:58.314Z,67.90
2023-05-08T12:58:06.530Z,67.90
2023-05-08T13:00:15.091Z,68.00
2023-05-08T13:02:27.616Z,67.90
2023-05-08T13:04:40.867Z,68.20
2023-05-08T13:06:58.449Z,68.30
2023-05-08T13:09:05.679Z,68.50
2023-05-08T13:11:12.553Z,67.80
2023-05-08T13:13:20.839Z,66.90
2023-05-08T13:15:27.730Z,66.50
2023-05-08T13:17:35.033Z,66.20
2023-05-08T13:19:41.893Z,65.90
2023-05-08T13:21:50.760Z,66.10
2023-05-08T13:23:57.691Z,66.90
2023-05-08T13:26:05.172Z,67.30
2023-05-08T13:28:13.537Z,65.90
2023-05-08T13:30:21.738Z,65.00
2023-05-08T13:32:28.743Z,67.90
2023-05-08T13:34:37.778Z,68.30
2023-05-08T13:36:50.195Z,68.30
2023-05-08T13:38:58.501Z,68.50
2023-05-08T13:41:05.283Z,69.10
2023-05-08T13:43:12.259Z,69.00
2023-05-08T13:45:19.586Z,68.90
2023-05-08T13:47:26.625Z,69.00
2023-05-08T13:49:33.491Z,68.70
2023-05-08T13:51:40.319Z,68.90
2023-05-08T13:53:49.105Z,69.10
2023-05-08T13:55:55.904Z,69.30
2023-05-08T13:58:02.981Z,69.70
2023-05-08T14:00:11.772Z,69.90
2023-05-08T14:02:18.847Z,69.70
2023-05-08T14:04:25.920Z,69.80
2023-05-08T14:06:33.873Z,69.90
2023-05-08T14:08:46.636Z,70.30
2023-05-08T14:10:57.524Z,70.90
2023-05-08T14:13:04.604Z,71.00
2023-05-08T14:15:12.961Z,71.30
2023-05-08T14:17:22.999Z,71.10
2023-05-08T14:19:30.056Z,70.70
2023-05-08T14:21:37.750Z,70.30
2023-05-08T14:23:45.548Z,69.90
2023-05-08T14:25:52.374Z,70.30
2023-05-08T14:28:01.291Z,69.90
2023-05-08T14:30:09.299Z,69.60
2023-05-08T14:32:16.137Z,69.30
2023-05-08T14:34:22.990Z,69.30
2023-05-08T14:36:30.130Z,69.10
2023-05-08T14:38:36.944Z,69.20
2023-05-08T14:40:44.219Z,69.60
2023-05-08T14:42:51.156Z,69.50
2023-05-08T14:45:00.141Z,70.00
2023-05-08T14:47:07.562Z,70.20
2023-05-08T14:51:41.596Z,71.10
2023-05-08T14:53:49.078Z,71.00
2023-05-08T14:55:56.120Z,70.50
2023-05-08T14:58:03.544Z,70.50
2023-05-08T15:00:13.964Z,70.30
2023-05-08T15:02:21.650Z,70.90
2023-05-08T15:04:28.775Z,71.50
2023-05-08T15:06:37.171Z,71.80
2023-05-08T15:08:44.015Z,71.80
2023-05-08T15:10:51.087Z,72.90
2023-05-08T15:12:58.070Z,73.40
2023-05-08T15:15:05.293Z,73.00
2023-05-08T15:17:13.878Z,72.00
2023-05-08T15:19:21.044Z,71.50
2023-05-08T15:21:35.038Z,71.90
2023-05-08T15:23:42.523Z,72.50
2023-05-08T15:25:50.661Z,72.70
2023-05-08T15:27:58.973Z,73.40
2023-05-08T15:30:07.908Z,73.30
2023-05-08T15:32:21.042Z,73.20
2023-05-08T15:34:32.430Z,73.10
2023-05-08T15:36:42.313Z,73.40
2023-05-08T15:38:51.841Z,73.10
2023-05-08T15:43:21.976Z,72.60
2023-05-08T15:45:29.150Z,74.50
2023-05-08T15:47:37.991Z,75.20
2023-05-08T15:49:44.851Z,75.50
2023-05-08T15:51:51.724Z,75.60
2023-05-08T15:53:58.649Z,75.80
2023-05-08T15:56:13.205Z,75.70
2023-05-08T15:58:21.463Z,75.50
2023-05-08T16:00:33.452Z,75.80
2023-05-08T16:05:15.480Z,76.50
2023-05-08T16:07:22.484Z,76.90
2023-05-08T16:09:29.674Z,77.40
2023-05-08T16:11:36.655Z,77.60
2023-05-08T16:13:43.838Z,77.20
2023-05-08T16:15:50.809Z,76.60
2023-05-08T16:17:59.680Z,76.70
2023-05-08T16:20:06.715Z,76.70
2023-05-08T16:22:13.525Z,76.70
2023-05-08T16:24:23.994Z,76.60
2023-05-08T16:26:31.534Z,76.00
2023-05-08T16:28:38.753Z,76.20
2023-05-08T16:30:45.744Z,77.30
2023-05-08T16:32:53.053Z,77.10
2023-05-08T16:35:01.788Z,77.70
2023-05-08T16:37:08.936Z,77.90
2023-05-08T16:39:15.649Z,77.70
2023-05-08T16:41:22.781Z,77.80
2023-05-08T16:43:29.603Z,77.40
2023-05-08T16:45:36.750Z,77.50
2023-05-08T16:47:48.455Z,77.40
2023-05-08T16:49:56.393Z,77.30
2023-05-08T16:52:05.446Z,78.30
2023-05-08T16:54:12.576Z,78.40
2023-05-08T16:56:19.603Z,78.80
2023-05-08T16:58:29.660Z,79.00
2023-05-08T17:00:36.576Z,79.10
2023-05-08T17:02:43.874Z,79.60
2023-05-08T17:04:51.202Z,79.90
2023-05-08T17:06:58.427Z,79.90
2023-05-08T17:09:07.046Z,80.50
2023-05-08T17:11:13.975Z,80.50
2023-05-08T17:13:20.767Z,80.50
2023-05-08T17:15:27.773Z,80.50
2023-05-08T17:17:34.804Z,80.30
2023-05-08T17:19:44.137Z,80.10
2023-05-08T17:21:50.958Z,80.60
2023-05-08T17:23:58.082Z,81.10
2023-05-08T17:26:06.544Z,81.40
2023-05-08T17:28:13.725Z,81.70
2023-05-08T17:30:33.004Z,82.00
2023-05-08T17:39:49.230Z,82.50
2023-05-08T17:41:58.101Z,82.80
2023-05-08T17:44:07.161Z,82.80
2023-05-08T17:53:26.660Z,83.20
2023-05-08T17:55:35.581Z,83.10
2023-05-08T17:57:43.996Z,83.10
2023-05-08T17:59:51.779Z,83.20
2023-05-08T18:02:02.047Z,83.40
2023-05-08T18:04:09.371Z,83.60
2023-05-08T18:06:18.894Z,83.50
2023-05-08T18:08:26.033Z,83.10
2023-05-08T18:10:33.315Z,82.70
2023-05-08T18:12:40.800Z,82.40
2023-05-08T18:14:49.677Z,82.60
2023-05-08T18:16:56.856Z,83.20
2023-05-08T18:19:03.629Z,83.80
2023-05-08T18:21:10.913Z,84.10
2023-05-08T18:23:17.704Z,83.90
2023-05-08T18:25:24.917Z,83.80
2023-05-08T18:27:35.337Z,83.70
2023-05-08T18:29:42.610Z,83.80
2023-05-08T18:31:51.884Z,83.70
2023-05-08T18:34:00.505Z,83.80
2023-05-08T18:36:07.891Z,84.30
2023-05-08T18:38:20.203Z,84.20
2023-05-08T18:40:27.068Z,84.20
2023-05-08T18:42:34.144Z,84.40
2023-05-08T18:44:44.448Z,84.30
2023-05-08T18:46:53.422Z,84.20
2023-05-08T18:49:00.351Z,83.90
2023-05-08T18:51:09.274Z,83.70
2023-05-08T18:53:19.674Z,83.40
2023-05-08T18:55:28.445Z,82.90
2023-05-08T18:57:39.576Z,82.80
2023-05-08T18:59:46.648Z,83.10
2023-05-08T19:02:13.902Z,83.10
2023-05-08T19:04:27.384Z,82.50
2023-05-08T19:06:34.565Z,82.50
2023-05-08T19:08:45.594Z,82.50
2023-05-08T19:10:52.355Z,82.30
2023-05-08T19:13:02.997Z,82.50
2023-05-08T19:15:14.548Z,82.50
2023-05-08T19:17:23.732Z,82.50
2023-05-08T19:19:30.503Z,82.50
2023-05-08T19:21:37.736Z,82.10
2023-05-08T19:23:44.615Z,82.30
2023-05-08T19:25:51.691Z,82.50
2023-05-08T19:27:59.645Z,82.40
2023-05-08T19:30:16.931Z,82.30
2023-05-08T19:32:29.875Z,82.30
2023-05-08T19:34:39.425Z,82.60
2023-05-08T19:36:53.864Z,82.60
2023-05-08T19:39:04.732Z,82.40
2023-05-08T19:41:11.932Z,82.80
2023-05-08T19:45:39.081Z,84.30
2023-05-08T19:47:51.317Z,85.60
2023-05-08T19:49:58.507Z,86.00
2023-05-08T19:52:05.482Z,86.10
2023-05-08T19:54:12.415Z,86.30
2023-05-08T19:56:19.335Z,86.30
2023-05-08T19:58:26.464Z,86.70
2023-05-08T20:00:33.748Z,86.90
2023-05-08T20:02:40.660Z,86.80
2023-05-08T20:05:18.207Z,86.80
2023-05-08T20:07:17.160Z,86.60
2023-05-08T20:09:24.334Z,86.60
2023-05-08T20:11:31.215Z,86.20
2023-05-08T20:13:38.191Z,86.10
2023-05-08T20:15:45.596Z,86.10
2023-05-08T20:17:52.867Z,86.20
2023-05-08T20:20:01.919Z,86.50
2023-05-08T20:22:09.014Z,86.60
2023-05-08T20:24:16.252Z,86.70
2023-05-08T20:26:32.352Z,87.00
2023-05-08T20:28:39.785Z,87.00
2023-05-08T20:30:47.213Z,86.90
2023-05-08T20:32:54.136Z,87.00
2023-05-08T20:35:05.671Z,87.20
2023-05-08T20:39:32.487Z,87.30
2023-05-08T20:41:39.407Z,87.10
2023-05-08T20:43:46.589Z,87.10
2023-05-08T20:45:59.707Z,87.00
2023-05-08T20:48:07.527Z,87.20
2023-05-08T20:50:17.083Z,87.40
2023-05-08T20:52:24.376Z,87.50
2023-05-08T20:54:32.939Z,87.80
2023-05-08T20:56:44.627Z,87.50
2023-05-08T20:58:51.475Z,87.20
2023-05-08T21:00:58.361Z,86.90
2023-05-08T21:03:05.431Z,87.10
2023-05-08T21:09:55.873Z,86.80
2023-05-08T21:12:03.337Z,87.40
2023-05-08T21:14:10.380Z,87.30
2023-05-08T21:16:17.192Z,87.50
2023-05-08T21:18:29.935Z,87.50
2023-05-08T21:20:38.579Z,87.90
2023-05-08T21:22:47.105Z,88.30
2023-05-08T21:24:54.241Z,88.80
2023-05-08T21:27:02.202Z,88.80
2023-05-08T21:29:11.687Z,88.70
2023-05-08T21:31:18.831Z,88.60
2023-05-08T21:33:25.814Z,88.50
2023-05-08T21:35:33.016Z,88.20
2023-05-08T21:37:41.782Z,88.00
2023-05-08T21:39:48.863Z,88.00
2023-05-08T21:41:55.844Z,88.00
2023-05-08T21:44:02.823Z,87.90
2023-05-08T21:46:10.843Z,87.70
2023-05-08T21:48:18.081Z,87.50
2023-05-08T21:50:24.977Z,87.50
2023-05-08T21:52:32.267Z,87.60
2023-05-08T21:54:40.878Z,87.70
2023-05-08T21:56:47.986Z,87.90
2023-05-08T21:58:54.843Z,88.00
2023-05-08T22:01:01.892Z,88.20
2023-05-08T22:03:08.933Z,88.60
2023-05-08T22:05:16.327Z,88.80
2023-05-08T22:07:23.249Z,88.90
2023-05-08T22:09:30.124Z,88.80
2023-05-08T22:11:38.751Z,89.10
2023-05-08T22:13:45.815Z,89.10
2023-05-08T22:15:52.695Z,89.20
2023-05-08T22:17:59.946Z,89.30
2023-05-08T22:20:07.262Z,89.40
2023-05-08T22:22:14.441Z,89.80
2023-05-08T22:24:21.845Z,90.40
2023-05-08T22:26:29.732Z,90.40
2023-05-08T22:28:38.851Z,90.30
2023-05-08T22:30:47.418Z,90.50
2023-05-08T22:32:58.381Z,90.50
2023-05-08T22:35:05.621Z,90.40
2023-05-08T22:37:12.540Z,90.20
2023-05-08T22:39:33.958Z,90.50
2023-05-08T22:41:41.459Z,90.90
2023-05-08T22:43:50.417Z,90.80
2023-05-08T22:45:57.406Z,90.90
2023-05-08T22:48:04.761Z,90.80
2023-05-08T22:50:29.175Z,91.00
2023-05-08T22:54:56.235Z,91.70
2023-05-08T22:57:03.899Z,92.10
2023-05-08T22:59:12.487Z,92.30
2023-05-08T23:01:22.545Z,92.50
2023-05-08T23:03:32.840Z,92.50
2023-05-08T23:05:40.431Z,92.70
2023-05-08T23:07:47.313Z,92.50
2023-05-08T23:09:54.435Z,92.00
2023-05-08T23:14:32.306Z,92.00
2023-05-08T23:16:39.401Z,91.90
2023-05-08T23:18:46.665Z,91.70
2023-05-08T23:20:53.536Z,92.10
2023-05-08T23:23:06.766Z,92.50
2023-05-08T23:25:14.782Z,92.80
2023-05-08T23:27:21.997Z,93.20
2023-05-08T23:29:31.278Z,92.90
2023-05-08T23:31:39.718Z,92.60
2023-05-08T23:33:46.980Z,92.60
2023-05-08T23:35:55.025Z,92.10
2023-05-08T23:38:01.847Z,91.90
2023-05-08T23:40:14.822Z,92.00
2023-05-08T23:42:29.827Z,92.30
2023-05-08T23:44:39.508Z,92.80
2023-05-08T23:46:47.120Z,92.00
2023-05-08T23:48:54.188Z,92.00
2023-05-08T23:51:12.293Z,91.80
2023-05-08T23:53:35.135Z,91.50
2023-05-08T23:55:44.867Z,91.80
2023-05-08T23:57:51.652Z,91.70
